createdAt,value
2019-05-26T00:02:14.725Z,8.93
2019-05-26T00:04:46.301Z,11.63
2019-05-26T00:07:30.165Z,7.77
2019-05-26T00:09:51.353Z,9.90
2019-05-26T00:12:22.853Z,8.60
2019-05-26T00:14:54.327Z,9.37
2019-05-26T00:17:25.793Z,8.17
2019-05-26T00:19:57.399Z,8.80
2019-05-26T00:22:28.950Z,7.50
2019-05-26T00:25:00.479Z,9.07
2019-05-26T00:27:33.493Z,10.80
2019-05-26T00:30:05.436Z,11.13
2019-05-26T00:32:37.005Z,7.53
2019-05-26T00:35:09.095Z,8.13
2019-05-26T00:37:49.295Z,9.80
2019-05-26T00:40:14.191Z,7.03
2019-05-26T00:42:45.831Z,9.03
2019-05-26T00:45:28.923Z,9.30
2019-05-26T00:48:00.513Z,10.60
2019-05-26T00:50:32.065Z,9.93
2019-05-26T00:53:03.613Z,8.00
2019-05-26T00:55:35.192Z,7.73
2019-05-26T00:58:06.938Z,5.97
2019-05-26T01:00:43.328Z,6.60
2019-05-26T01:03:14.894Z,8.87
2019-05-26T01:05:46.341Z,8.37
2019-05-26T01:08:17.825Z,6.03
2019-05-26T01:10:49.297Z,6.43
2019-05-26T01:13:21.201Z,6.60
2019-05-26T01:15:52.771Z,8.47
2019-05-26T01:18:24.841Z,7.20
2019-05-26T01:20:56.697Z,6.90
2019-05-26T01:23:28.766Z,8.03
2019-05-26T01:26:00.289Z,8.03
2019-05-26T01:28:32.090Z,9.17
2019-05-26T01:31:03.614Z,8.87
2019-05-26T01:33:35.493Z,6.40
2019-05-26T01:36:07.151Z,9.23
2019-05-26T01:38:39.707Z,7.87
2019-05-26T01:41:12.258Z,5.90
2019-05-26T01:43:43.715Z,5.77
2019-05-26T01:46:15.305Z,6.33
2019-05-26T01:48:53.536Z,7.07
2019-05-26T01:51:25.002Z,6.57
2019-05-26T01:53:56.483Z,7.90
2019-05-26T01:56:28.017Z,10.10
2019-05-26T01:58:59.512Z,7.90
2019-05-26T02:01:31.402Z,9.57
2019-05-26T02:04:03.001Z,7.20
2019-05-26T02:06:34.573Z,8.80
2019-05-26T02:09:08.128Z,9.47
2019-05-26T02:11:39.726Z,6.07
2019-05-26T02:14:14.370Z,9.57
2019-05-26T02:16:44.392Z,6.63
2019-05-26T02:19:15.921Z,6.50
2019-05-26T02:21:47.441Z,5.83
2019-05-26T02:24:18.929Z,7.47
2019-05-26T02:26:50.389Z,7.27
2019-05-26T02:29:21.912Z,9.90
2019-05-26T02:31:53.598Z,10.20
2019-05-26T02:34:25.086Z,7.90
2019-05-26T02:36:56.543Z,6.10
2019-05-26T02:39:28.022Z,6.43
2019-05-26T02:41:59.711Z,6.47
2019-05-26T02:44:31.653Z,5.10
2019-05-26T02:47:03.108Z,6.53
2019-05-26T02:49:34.596Z,10.97
2019-05-26T02:52:06.617Z,5.93
2019-05-26T02:54:38.128Z,6.10
2019-05-26T02:57:09.596Z,6.63
2019-05-26T02:59:41.355Z,5.73
2019-05-26T03:02:12.854Z,6.17
2019-05-26T03:04:44.311Z,7.23
2019-05-26T03:07:16.532Z,5.73
2019-05-26T03:09:48.949Z,7.33
2019-05-26T03:12:22.762Z,7.07
2019-05-26T03:14:57.234Z,8.40
2019-05-26T03:17:32.078Z,6.00
2019-05-26T03:20:06.703Z,6.67
2019-05-26T03:22:42.164Z,6.87
2019-05-26T03:25:14.338Z,6.83
2019-05-26T03:27:46.006Z,6.57
2019-05-26T03:30:17.596Z,8.17
2019-05-26T03:32:49.063Z,7.53
2019-05-26T03:35:20.547Z,5.67
2019-05-26T03:37:52.081Z,8.77
2019-05-26T03:40:23.613Z,5.37
2019-05-26T03:42:55.490Z,7.13
2019-05-26T03:45:50.813Z,5.70
2019-05-26T03:48:22.455Z,5.57
2019-05-26T03:50:54.004Z,6.23
2019-05-26T03:53:25.529Z,7.00
2019-05-26T03:55:58.192Z,4.83
2019-05-26T03:58:29.672Z,8.07
2019-05-26T04:01:01.154Z,7.90
2019-05-26T04:03:32.646Z,6.90
2019-05-26T04:06:05.043Z,4.23
2019-05-26T04:08:36.506Z,6.77
2019-05-26T04:11:08.077Z,8.43
2019-05-26T04:13:39.556Z,4.90
2019-05-26T04:16:11.089Z,6.03
2019-05-26T04:18:43.093Z,6.13
2019-05-26T04:21:14.914Z,5.30
2019-05-26T04:23:46.369Z,6.43
2019-05-26T04:26:17.823Z,7.20
2019-05-26T04:28:49.274Z,6.63
2019-05-26T04:31:20.801Z,5.13
2019-05-26T04:33:52.410Z,7.13
2019-05-26T04:36:23.941Z,6.90
2019-05-26T04:38:56.932Z,5.50
2019-05-26T04:41:28.401Z,9.93
2019-05-26T04:44:08.980Z,8.13
2019-05-26T04:46:40.512Z,5.93
2019-05-26T04:49:12.119Z,8.77
2019-05-26T04:51:43.661Z,5.80
2019-05-26T04:54:15.167Z,9.97
2019-05-26T04:56:46.647Z,6.10
2019-05-26T04:59:18.150Z,5.20
2019-05-26T05:01:49.631Z,5.23
2019-05-26T05:04:21.174Z,6.10
2019-05-26T05:06:52.674Z,7.00
2019-05-26T05:09:24.123Z,4.57
2019-05-26T05:11:58.733Z,7.40
2019-05-26T05:14:30.197Z,5.20
2019-05-26T05:17:01.729Z,7.50
2019-05-26T05:19:33.217Z,6.30
2019-05-26T05:22:04.761Z,5.03
2019-05-26T05:24:36.308Z,6.60
2019-05-26T05:27:07.842Z,6.00
2019-05-26T05:29:39.279Z,8.07
2019-05-26T05:32:10.935Z,5.60
2019-05-26T05:34:42.422Z,9.80
2019-05-26T05:37:13.955Z,5.43
2019-05-26T05:39:45.549Z,6.53
2019-05-26T05:42:17.051Z,8.27
2019-05-26T05:44:48.579Z,9.47
2019-05-26T05:47:20.067Z,6.10
2019-05-26T05:49:51.515Z,5.50
2019-05-26T05:52:23.068Z,6.77
2019-05-26T05:54:54.635Z,7.13
2019-05-26T05:57:26.140Z,5.70
2019-05-26T05:59:57.589Z,6.40
2019-05-26T06:02:29.157Z,7.33
2019-05-26T06:05:00.649Z,5.33
2019-05-26T06:07:32.212Z,6.00
2019-05-26T06:10:04.232Z,4.67
2019-05-26T06:12:35.986Z,4.67
2019-05-26T06:15:10.555Z,6.10
2019-05-26T06:17:42.224Z,8.10
2019-05-26T06:20:14.716Z,10.87
2019-05-26T06:22:46.349Z,5.77
2019-05-26T06:25:18.113Z,6.63
2019-05-26T06:27:49.758Z,6.83
2019-05-26T06:30:21.591Z,5.70
2019-05-26T06:32:53.223Z,4.53
2019-05-26T06:35:24.875Z,4.83
2019-05-26T06:37:56.517Z,5.70
2019-05-26T06:40:28.302Z,4.50
2019-05-26T06:42:59.986Z,5.13
2019-05-26T06:45:31.669Z,8.23
2019-05-26T06:48:03.359Z,3.87
2019-05-26T06:50:35.013Z,5.67
2019-05-26T06:53:06.702Z,6.90
2019-05-26T06:55:38.341Z,4.23
2019-05-26T06:58:10.071Z,4.70
2019-05-26T07:00:41.759Z,4.17
2019-05-26T07:03:13.455Z,6.53
2019-05-26T07:05:45.109Z,5.17
2019-05-26T07:08:16.707Z,3.50
2019-05-26T07:10:48.875Z,5.17
2019-05-26T07:13:20.453Z,3.07
2019-05-26T07:15:52.383Z,4.17
2019-05-26T07:18:23.935Z,4.23
2019-05-26T07:20:55.556Z,3.53
2019-05-26T07:23:27.135Z,4.10
2019-05-26T07:26:00.050Z,5.87
2019-05-26T07:28:31.796Z,4.33
2019-05-26T07:31:03.393Z,3.33
2019-05-26T07:33:35.949Z,4.20
2019-05-26T07:36:07.570Z,3.00
2019-05-26T07:38:39.333Z,4.00
2019-05-26T07:41:10.944Z,2.97
2019-05-26T07:43:42.676Z,3.37
2019-05-26T07:46:14.394Z,2.50
2019-05-26T07:48:46.136Z,4.47
2019-05-26T07:51:19.005Z,5.77
2019-05-26T07:53:50.656Z,2.60
2019-05-26T07:56:22.224Z,3.73
2019-05-26T07:58:53.875Z,4.67
2019-05-26T08:01:35.122Z,4.77
2019-05-26T08:03:58.703Z,5.53
2019-05-26T08:06:30.273Z,3.30
2019-05-26T08:09:01.878Z,3.40
2019-05-26T08:11:34.193Z,4.70
2019-05-26T08:14:05.824Z,4.03
2019-05-26T08:16:37.308Z,5.93
2019-05-26T08:19:08.859Z,3.80
2019-05-26T08:21:40.434Z,2.63
2019-05-26T08:24:12.160Z,4.50
2019-05-26T08:26:43.663Z,2.93
2019-05-26T08:29:15.307Z,5.90
2019-05-26T08:31:46.854Z,3.07
2019-05-26T08:34:18.390Z,3.83
2019-05-26T08:36:49.920Z,2.80
2019-05-26T08:39:21.635Z,3.10
2019-05-26T08:41:53.574Z,2.93
2019-05-26T08:44:25.097Z,6.20
2019-05-26T08:46:56.633Z,3.67
2019-05-26T08:49:28.276Z,3.83
2019-05-26T08:51:59.856Z,2.47
2019-05-26T08:54:31.488Z,4.17
2019-05-26T08:57:03.139Z,2.57
2019-05-26T08:59:34.744Z,3.40
2019-05-26T09:02:06.423Z,2.37
2019-05-26T09:04:38.073Z,2.80
2019-05-26T09:07:09.597Z,2.40
2019-05-26T09:09:41.303Z,2.83
2019-05-26T09:12:12.956Z,4.70
2019-05-26T09:14:44.724Z,5.37
2019-05-26T09:17:16.498Z,3.40
2019-05-26T09:19:48.311Z,5.03
2019-05-26T09:22:19.919Z,2.67
2019-05-26T09:24:51.579Z,3.80
2019-05-26T09:27:23.403Z,2.53
2019-05-26T09:29:55.005Z,4.10
2019-05-26T09:32:26.738Z,3.40
2019-05-26T09:34:58.475Z,5.10
2019-05-26T09:37:30.165Z,3.27
2019-05-26T09:40:02.059Z,4.40
2019-05-26T09:42:35.008Z,7.07
2019-05-26T09:45:08.169Z,4.23
2019-05-26T09:47:40.839Z,2.53
2019-05-26T09:50:14.011Z,5.00
2019-05-26T09:52:45.595Z,4.90
2019-05-26T09:55:17.520Z,2.20
2019-05-26T09:57:49.439Z,3.80
2019-05-26T10:00:22.284Z,2.87
2019-05-26T10:02:53.853Z,3.30
2019-05-26T10:05:25.407Z,2.90
2019-05-26T10:07:56.975Z,4.23
2019-05-26T10:10:28.947Z,4.30
2019-05-26T10:13:00.516Z,2.77
2019-05-26T10:15:32.145Z,4.03
2019-05-26T10:18:03.609Z,5.97
2019-05-26T10:20:35.177Z,5.10
2019-05-26T10:23:06.760Z,3.47
2019-05-26T10:25:38.234Z,3.63
2019-05-26T10:28:09.756Z,5.27
2019-05-26T10:30:42.959Z,3.23
2019-05-26T10:33:14.497Z,2.50
2019-05-26T10:35:46.050Z,3.43
2019-05-26T10:38:17.636Z,2.57
2019-05-26T10:40:49.263Z,4.03
2019-05-26T10:43:20.862Z,2.80
2019-05-26T10:45:53.855Z,4.43
2019-05-26T10:48:25.367Z,4.27
2019-05-26T10:50:57.197Z,2.47
2019-05-26T10:53:28.701Z,3.03
2019-05-26T10:56:00.156Z,4.77
2019-05-26T10:58:31.659Z,2.67
2019-05-26T11:01:03.305Z,3.00
2019-05-26T11:03:34.892Z,3.33
2019-05-26T11:06:06.670Z,3.23
2019-05-26T11:08:38.319Z,2.40
2019-05-26T11:11:09.882Z,2.80
2019-05-26T11:13:41.352Z,3.53
2019-05-26T11:16:12.893Z,2.63
2019-05-26T11:18:44.393Z,4.23
2019-05-26T11:21:15.917Z,2.17
2019-05-26T11:23:47.436Z,2.77
2019-05-26T11:26:19.020Z,3.30
2019-05-26T11:28:50.469Z,3.07
2019-05-26T11:31:22.128Z,2.33
2019-05-26T11:33:53.623Z,2.23
2019-05-26T11:36:25.142Z,3.50
2019-05-26T11:38:56.632Z,4.07
2019-05-26T11:41:28.187Z,2.40
2019-05-26T11:43:59.673Z,1.60
2019-05-26T11:46:31.226Z,2.30
2019-05-26T11:49:04.141Z,2.53
2019-05-26T11:51:35.720Z,2.80
2019-05-26T11:54:07.340Z,1.80
2019-05-26T11:56:38.814Z,2.60
2019-05-26T11:59:10.273Z,3.27
2019-05-26T12:01:41.945Z,1.87
2019-05-26T12:04:13.490Z,1.83
2019-05-26T12:06:45.070Z,3.60
2019-05-26T12:09:16.531Z,1.43
2019-05-26T12:11:48.041Z,2.47
2019-05-26T12:14:33.491Z,2.23
2019-05-26T12:16:52.774Z,1.97
2019-05-26T12:19:24.544Z,4.80
2019-05-26T12:21:56.142Z,2.20
2019-05-26T12:24:27.701Z,1.70
2019-05-26T12:26:59.182Z,2.10
2019-05-26T12:29:30.672Z,1.80
2019-05-26T12:32:02.251Z,2.27
2019-05-26T12:34:33.715Z,2.17
2019-05-26T12:37:05.515Z,2.10
2019-05-26T12:39:37.126Z,2.35
2019-05-26T12:42:08.618Z,5.30
2019-05-26T12:44:48.982Z,4.28
2019-05-26T12:47:14.386Z,1.40
2019-05-26T12:49:46.001Z,1.73
2019-05-26T12:52:17.545Z,3.33
2019-05-26T12:54:49.562Z,3.02
2019-05-26T12:57:21.659Z,2.80
2019-05-26T12:59:53.969Z,1.50
2019-05-26T13:02:26.036Z,1.25
2019-05-26T13:04:59.343Z,1.70
2019-05-26T13:07:31.459Z,1.42
2019-05-26T13:10:03.541Z,1.27
2019-05-26T13:12:35.692Z,1.87
2019-05-26T13:15:08.642Z,1.62
2019-05-26T13:17:40.748Z,1.37
2019-05-26T13:20:15.231Z,1.20
2019-05-26T13:22:47.357Z,1.50
2019-05-26T13:25:21.014Z,3.42
2019-05-26T13:27:53.170Z,1.57
2019-05-26T13:30:26.618Z,2.52
2019-05-26T13:32:58.688Z,4.05
2019-05-26T13:35:30.712Z,1.80
2019-05-26T13:38:02.859Z,3.37
2019-05-26T13:40:34.881Z,1.77
2019-05-26T13:43:06.975Z,1.70
2019-05-26T13:45:39.076Z,2.37
2019-05-26T13:48:11.552Z,1.47
2019-05-26T13:50:44.100Z,1.47
2019-05-26T13:53:16.138Z,1.90
2019-05-26T13:55:48.251Z,1.60
2019-05-26T13:58:20.276Z,1.67
2019-05-26T14:00:52.346Z,2.33
2019-05-26T14:03:24.522Z,1.70
2019-05-26T14:05:57.759Z,3.22
2019-05-26T14:08:29.884Z,1.40
2019-05-26T14:11:01.972Z,2.00
2019-05-26T14:13:34.450Z,1.37
2019-05-26T14:16:06.599Z,2.22
2019-05-26T14:18:40.097Z,1.42
2019-05-26T14:21:12.400Z,2.42
2019-05-26T14:23:44.459Z,1.60
2019-05-26T14:26:16.526Z,1.30
2019-05-26T14:28:48.638Z,1.30
2019-05-26T14:31:20.723Z,1.55
2019-05-26T14:33:52.832Z,1.17
2019-05-26T14:36:24.851Z,1.75
2019-05-26T14:38:56.921Z,2.60
2019-05-26T14:41:29.179Z,2.10
2019-05-26T14:44:01.203Z,1.25
2019-05-26T14:46:33.326Z,1.20
2019-05-26T14:49:05.867Z,3.65
2019-05-26T14:51:37.861Z,1.20
2019-05-26T14:54:09.975Z,0.98
2019-05-26T14:56:42.030Z,1.37
2019-05-26T14:59:14.159Z,2.37
2019-05-26T15:01:46.209Z,1.15
2019-05-26T15:04:18.379Z,1.67
2019-05-26T15:06:50.549Z,1.30
2019-05-26T15:09:25.413Z,2.30
2019-05-26T15:11:56.632Z,1.60
2019-05-26T15:14:28.751Z,1.52
2019-05-26T15:17:00.947Z,3.95
2019-05-26T15:19:33.073Z,1.50
2019-05-26T15:22:05.356Z,1.50
2019-05-26T15:24:37.591Z,2.35
2019-05-26T15:27:09.759Z,1.27
2019-05-26T15:29:41.871Z,1.52
2019-05-26T15:32:13.951Z,2.22
2019-05-26T15:34:46.051Z,3.22
2019-05-26T15:37:18.155Z,4.30
2019-05-26T15:39:50.185Z,2.75
2019-05-26T15:42:23.645Z,2.37
2019-05-26T15:44:55.737Z,1.40
2019-05-26T15:47:27.783Z,1.40
2019-05-26T15:49:59.790Z,2.12
2019-05-26T15:52:31.853Z,1.85
2019-05-26T15:55:03.959Z,3.45
2019-05-26T15:57:36.077Z,1.75
2019-05-26T16:00:08.681Z,2.27
2019-05-26T16:02:40.797Z,1.37
2019-05-26T16:05:13.616Z,1.22
2019-05-26T16:07:45.666Z,1.62
2019-05-26T16:10:18.541Z,2.20
2019-05-26T16:12:50.669Z,4.62
2019-05-26T16:15:23.185Z,1.80
2019-05-26T16:17:55.362Z,2.90
2019-05-26T16:20:27.441Z,1.98
2019-05-26T16:23:00.043Z,2.33
2019-05-26T16:25:32.319Z,2.80
2019-05-26T16:28:04.581Z,1.77
2019-05-26T16:30:36.768Z,1.98
2019-05-26T16:33:08.932Z,2.65
2019-05-26T16:35:41.176Z,2.60
2019-05-26T16:38:13.301Z,1.45
2019-05-26T16:40:45.479Z,4.03
2019-05-26T16:43:18.826Z,2.02
2019-05-26T16:45:55.982Z,4.12
2019-05-26T16:48:24.771Z,3.70
2019-05-26T16:50:56.941Z,3.50
2019-05-26T16:53:29.067Z,4.60
2019-05-26T16:56:01.245Z,3.77
2019-05-26T16:58:33.245Z,2.20
2019-05-26T17:01:04.881Z,2.30
2019-05-26T17:03:37.099Z,2.05
2019-05-26T17:06:08.731Z,2.47
2019-05-26T17:08:40.909Z,1.50
2019-05-26T17:11:12.449Z,5.20
2019-05-26T17:13:44.067Z,3.00
2019-05-26T17:16:15.567Z,3.30
2019-05-26T17:18:47.217Z,1.63
2019-05-26T17:21:19.440Z,2.87
2019-05-26T17:23:51.014Z,3.57
2019-05-26T17:26:23.566Z,2.83
2019-05-26T17:28:55.052Z,2.13
2019-05-26T17:31:27.246Z,2.55
2019-05-26T17:33:59.350Z,2.40
2019-05-26T17:36:30.905Z,3.67
2019-05-26T17:39:02.645Z,4.08
2019-05-26T17:41:34.912Z,3.53
2019-05-26T17:44:07.226Z,2.58
2019-05-26T17:46:38.843Z,3.07
2019-05-26T17:49:11.011Z,3.85
2019-05-26T17:51:42.568Z,4.67
2019-05-26T17:54:14.664Z,2.77
2019-05-26T17:56:46.815Z,3.92
2019-05-26T17:59:18.862Z,3.23
2019-05-26T18:01:51.004Z,4.05
2019-05-26T18:04:23.238Z,2.65
2019-05-26T18:06:54.817Z,1.90
2019-05-26T18:09:26.950Z,3.75
2019-05-26T18:11:58.487Z,2.73
2019-05-26T18:14:30.653Z,3.17
2019-05-26T18:17:03.449Z,3.60
2019-05-26T18:19:35.123Z,2.60
2019-05-26T18:22:06.817Z,3.23
2019-05-26T18:24:38.520Z,4.77
2019-05-26T18:27:10.201Z,4.10
2019-05-26T18:29:41.842Z,3.17
2019-05-26T18:32:13.420Z,3.00
2019-05-26T18:34:44.915Z,5.20
2019-05-26T18:37:17.316Z,5.60
2019-05-26T18:39:48.840Z,3.97
2019-05-26T18:42:22.013Z,3.50
2019-05-26T18:44:53.637Z,7.50
2019-05-26T18:47:25.215Z,3.70
2019-05-26T18:49:56.803Z,3.23
2019-05-26T18:52:28.407Z,6.13
2019-05-26T18:55:00.003Z,5.30
2019-05-26T18:57:31.588Z,4.90
2019-05-26T19:00:03.247Z,3.23
2019-05-26T19:02:34.926Z,4.70
2019-05-26T19:05:07.328Z,7.80
2019-05-26T19:07:38.931Z,4.07
2019-05-26T19:10:10.925Z,5.03
2019-05-26T19:12:42.548Z,3.90
2019-05-26T19:15:14.906Z,4.63
2019-05-26T19:17:46.775Z,9.03
2019-05-26T19:20:18.784Z,5.60
2019-05-26T19:22:53.276Z,4.27
2019-05-26T19:25:23.625Z,5.30
2019-05-26T19:27:55.158Z,3.77
2019-05-26T19:30:26.869Z,3.07
2019-05-26T19:32:58.521Z,4.43
2019-05-26T19:35:30.189Z,7.73
2019-05-26T19:38:01.865Z,3.00
2019-05-26T19:40:33.485Z,9.50
2019-05-26T19:43:05.104Z,5.57
2019-05-26T19:45:36.753Z,4.80
2019-05-26T19:48:08.481Z,4.77
2019-05-26T19:50:39.954Z,6.83
2019-05-26T19:53:11.619Z,4.00
2019-05-26T19:55:43.109Z,3.10
2019-05-26T19:58:14.718Z,3.73
2019-05-26T20:00:46.323Z,5.97
2019-05-26T20:03:18.262Z,4.73
2019-05-26T20:05:49.861Z,5.83
2019-05-26T20:08:21.447Z,3.83
2019-05-26T20:10:53.505Z,5.40
2019-05-26T20:13:25.011Z,5.80
2019-05-26T20:15:56.613Z,7.87
2019-05-26T20:18:28.282Z,5.90
2019-05-26T20:20:59.857Z,6.63
2019-05-26T20:23:31.533Z,5.50
2019-05-26T20:26:03.094Z,7.63
2019-05-26T20:28:36.044Z,9.90
2019-05-26T20:31:08.829Z,5.00
2019-05-26T20:33:40.398Z,6.67
2019-05-26T20:36:11.891Z,5.47
2019-05-26T20:38:43.390Z,6.20
2019-05-26T20:41:14.943Z,8.07
2019-05-26T20:43:46.523Z,9.70
2019-05-26T20:46:18.098Z,6.77
2019-05-26T20:48:50.282Z,6.57
2019-05-26T20:51:21.762Z,8.43
2019-05-26T20:53:53.242Z,8.37
2019-05-26T20:56:24.729Z,12.70
2019-05-26T20:58:56.326Z,16.27
2019-05-26T21:01:28.137Z,16.40
2019-05-26T21:03:59.699Z,16.13
2019-05-26T21:06:31.151Z,15.33
2019-05-26T21:09:03.679Z,11.67
2019-05-26T21:11:35.271Z,12.13
2019-05-26T21:14:08.059Z,10.80
2019-05-26T21:16:39.879Z,13.33
2019-05-26T21:19:11.333Z,9.20
2019-05-26T21:21:42.940Z,8.90
2019-05-26T21:24:14.527Z,11.23
2019-05-26T21:26:46.096Z,10.57
2019-05-26T21:29:17.620Z,9.30
2019-05-26T21:31:49.101Z,6.37
2019-05-26T21:34:21.485Z,7.70
2019-05-26T21:36:52.928Z,6.40
2019-05-26T21:39:24.394Z,11.20
2019-05-26T21:41:55.996Z,10.30
2019-05-26T21:44:27.487Z,6.13
2019-05-26T21:46:58.986Z,6.53
2019-05-26T21:49:30.483Z,6.40
2019-05-26T21:52:01.952Z,6.87
2019-05-26T21:54:33.491Z,7.50
2019-05-26T21:57:04.987Z,6.33
2019-05-26T21:59:36.482Z,8.50
2019-05-26T22:02:08.045Z,10.20
2019-05-26T22:04:39.624Z,8.07
2019-05-26T22:07:11.132Z,9.17
2019-05-26T22:09:43.461Z,7.80
2019-05-26T22:12:14.996Z,9.57
2019-05-26T22:14:46.464Z,7.70
2019-05-26T22:17:18.065Z,6.77
2019-05-26T22:19:49.611Z,7.77
2019-05-26T22:22:22.211Z,8.43
2019-05-26T22:24:53.748Z,9.37
2019-05-26T22:27:25.242Z,7.73
2019-05-26T22:29:56.777Z,6.77
2019-05-26T22:32:28.276Z,7.40
2019-05-26T22:34:59.835Z,7.50
2019-05-26T22:37:32.374Z,10.07
2019-05-26T22:40:04.013Z,8.53
2019-05-26T22:42:35.684Z,10.73
2019-05-26T22:45:08.591Z,7.67
2019-05-26T22:47:40.146Z,7.37
2019-05-26T22:50:12.433Z,8.03
2019-05-26T22:52:43.945Z,9.07
2019-05-26T22:55:15.531Z,7.20
2019-05-26T22:57:54.677Z,12.43
2019-05-26T23:00:26.448Z,9.03
2019-05-26T23:02:58.370Z,8.13
2019-05-26T23:05:29.927Z,5.93
2019-05-26T23:08:01.418Z,8.93
2019-05-26T23:10:32.917Z,6.70
2019-05-26T23:13:04.483Z,6.80
2019-05-26T23:15:36.043Z,6.27
2019-05-26T23:18:07.567Z,7.80
2019-05-26T23:20:39.122Z,8.97
2019-05-26T23:23:10.605Z,8.70
2019-05-26T23:25:42.276Z,7.47
2019-05-26T23:28:13.975Z,9.27
2019-05-26T23:30:45.933Z,8.23
2019-05-26T23:33:17.437Z,7.20
2019-05-26T23:35:49.047Z,7.10
2019-05-26T23:38:20.541Z,5.50
2019-05-26T23:40:52.015Z,6.03
2019-05-26T23:43:23.512Z,7.23
2019-05-26T23:45:54.991Z,7.30
2019-05-26T23:48:26.498Z,6.37
2019-05-26T23:50:59.210Z,7.97
2019-05-26T23:53:30.738Z,8.43
2019-05-26T23:56:03.705Z,6.97
2019-05-26T23:58:35.205Z,7.07
